Time;durP1;ratioP1;P1;durP2;ratioP2;P2;SDS_P1;SDS_P2;PMS_P1;PMS_P2;Temp;Humidity;BMP_temperature;BMP_pressure;BME280_temperature;BME280_humidity;BME280_pressure;Samples;Min_cycle;Max_cycle;Signal;HPM_P1;HPM_P2
2022/08/27 00:02:16;;;;;;;15.70;10.82;;;;;;;22.26;55.17;99491.11;1757629;80;21150;-72
2022/08/27 00:04:43;;;;;;;19.15;10.63;;;;;;;22.23;55.47;99492.11;1755414;81;21105;-72
2022/08/27 00:07:11;;;;;;;14.33;9.85;;;;;;;22.14;55.52;99495.26;1755852;80;21026;-72
2022/08/27 00:09:39;;;;;;;13.78;10.10;;;;;;;22.05;55.71;99488.64;1761346;80;21553;-73
2022/08/27 00:12:05;;;;;;;12.78;9.73;;;;;;;21.98;55.91;99487.48;1757982;80;21628;-73
2022/08/27 00:14:32;;;;;;;16.10;10.18;;;;;;;21.95;55.82;99489.86;1750812;80;21152;-72
2022/08/27 00:16:59;;;;;;;16.70;9.53;;;;;;;21.92;56.02;99493.05;1761055;80;21613;-72
2022/08/27 00:19:25;;;;;;;12.23;9.53;;;;;;;21.86;55.80;99493.50;1755010;79;21604;-71
2022/08/27 00:21:54;;;;;;;14.03;9.95;;;;;;;21.83;55.71;99483.72;1761317;80;21024;-74
2022/08/27 00:24:20;;;;;;;12.47;9.60;;;;;;;21.79;55.79;99490.17;1762579;80;21056;-75
2022/08/27 00:26:47;;;;;;;13.80;9.93;;;;;;;21.76;55.94;99480.66;1753675;80;21116;-72
2022/08/27 00:29:13;;;;;;;13.10;10.15;;;;;;;21.75;56.22;99491.20;1760988;80;21506;-73
2022/08/27 00:31:40;;;;;;;11.10;8.95;;;;;;;21.73;56.16;99483.88;1758988;80;21109;-74
2022/08/27 00:34:06;;;;;;;15.58;10.55;;;;;;;21.74;56.21;99493.61;1762928;79;21017;-74
2022/08/27 00:36:33;;;;;;;14.20;10.35;;;;;;;21.75;56.22;99489.01;1726307;82;21061;-73
2022/08/27 00:38:59;;;;;;;11.20;9.55;;;;;;;21.75;56.26;99489.84;1753036;80;21065;-74
2022/08/27 00:41:26;;;;;;;14.87;10.00;;;;;;;21.74;56.29;99494.95;1762655;80;21037;-73
2022/08/27 00:43:56;;;;;;;13.03;9.33;;;;;;;21.72;56.41;99494.39;1766038;80;21073;-72
2022/08/27 00:46:46;;;;;;;11.95;8.63;;;;;;;21.71;56.35;99492.77;1766050;80;21080;-72
2022/08/27 00:49:23;;;;;;;14.75;9.08;;;;;;;21.71;56.14;99495.47;1762058;79;21100;-70
2022/08/27 00:51:55;;;;;;;11.38;8.75;;;;;;;21.70;55.88;99487.06;1768442;79;21549;-71
2022/08/27 00:54:22;;;;;;;13.95;9.55;;;;;;;21.71;55.81;99488.71;1759640;81;21045;-72
2022/08/27 00:56:48;;;;;;;12.73;9.58;;;;;;;21.70;55.73;99489.77;1750629;82;21089;-74
2022/08/27 00:59:15;;;;;;;18.35;10.00;;;;;;;21.70;55.71;99491.12;1769602;80;21049;-70
2022/08/27 01:04:29;;;;;;;12.37;8.90;;;;;;;21.74;55.59;99492.25;1759824;81;21865;-73
2022/08/27 01:06:56;;;;;;;12.65;8.68;;;;;;;21.78;55.45;99491.23;1730600;81;21020;-71
2022/08/27 01:09:23;;;;;;;14.28;9.78;;;;;;;21.80;55.48;99495.85;1770805;80;21133;-74
2022/08/27 01:11:51;;;;;;;11.88;8.60;;;;;;;21.83;55.59;99496.72;1761259;80;21009;-72
2022/08/27 01:14:18;;;;;;;11.45;8.48;;;;;;;21.85;55.40;99496.48;1761134;81;21512;-73
2022/08/27 01:16:53;;;;;;;10.35;8.33;;;;;;;21.82;55.48;99490.20;1762152;80;21149;-73
2022/08/27 01:19:37;;;;;;;14.38;8.78;;;;;;;21.77;55.69;99493.13;1746240;80;21037;-70
2022/08/27 01:22:38;;;;;;;14.87;10.80;;;;;;;21.72;55.68;99488.98;1754049;80;21057;-73
2022/08/27 01:25:11;;;;;;;12.25;9.00;;;;;;;21.67;55.72;99498.38;1729959;81;21056;-72
2022/08/27 01:27:39;;;;;;;13.03;9.20;;;;;;;21.65;55.94;99501.84;1760671;80;21075;-73
2022/08/27 01:30:07;;;;;;;13.53;8.88;;;;;;;21.64;55.99;99504.81;1758552;80;21541;-73
2022/08/27 01:32:35;;;;;;;9.73;8.53;;;;;;;21.63;56.03;99505.33;1758725;80;21007;-72
2022/08/27 01:35:03;;;;;;;16.00;9.35;;;;;;;21.59;55.92;99503.67;1759225;80;21100;-71
2022/08/27 01:37:30;;;;;;;13.75;8.53;;;;;;;21.57;55.96;99499.56;1758067;80;21008;-73
2022/08/27 01:39:58;;;;;;;12.37;9.10;;;;;;;21.55;55.93;99496.28;1757036;80;21025;-73
2022/08/27 01:42:37;;;;;;;10.18;9.03;;;;;;;21.55;56.14;99503.04;1755495;80;21149;-73
2022/08/27 01:45:11;;;;;;;16.57;9.43;;;;;;;21.53;55.99;99499.77;1701405;83;21045;-72
2022/08/27 01:47:38;;;;;;;10.20;8.55;;;;;;;21.49;56.22;99496.73;1706206;83;21082;-75
2022/08/27 01:50:11;;;;;;;13.18;9.65;;;;;;;21.48;56.53;99500.52;1705380;83;21073;-73
2022/08/27 01:52:37;;;;;;;;;;;;;;;21.47;56.79;99500.75;1760924;80;21025;-73
2022/08/27 01:55:06;;;;;;;13.25;9.78;;;;;;;21.45;56.89;99496.94;1767390;80;21608;-73
2022/08/27 01:57:34;;;;;;;14.50;9.98;;;;;;;21.42;56.94;99498.73;1756328;80;21074;-73
2022/08/27 02:00:08;;;;;;;13.13;9.65;;;;;;;21.41;57.03;99503.88;1755369;80;21089;-73
2022/08/27 02:02:36;;;;;;;14.45;8.83;;;;;;;21.37;56.94;99498.67;1757094;81;21127;-73
2022/08/27 02:05:03;;;;;;;10.75;9.10;;;;;;;21.34;57.27;99495.09;1759528;81;21000;-73
2022/08/27 02:07:30;;;;;;;15.28;9.63;;;;;;;21.30;57.33;99489.36;1758395;81;21810;-72
2022/08/27 02:09:57;;;;;;;12.75;9.43;;;;;;;21.26;57.46;99487.41;1757639;81;21037;-71
2022/08/27 02:12:23;;;;;;;13.38;9.15;;;;;;;21.24;57.64;99489.53;1757677;80;21005;-72
2022/08/27 02:14:51;;;;;;;15.08;9.33;;;;;;;21.23;57.71;99499.53;1758864;81;21127;-72
2022/08/27 02:17:17;;;;;;;11.40;9.43;;;;;;;21.23;57.60;99497.34;1754897;80;21450;-71
2022/08/27 02:19:44;;;;;;;11.38;8.90;;;;;;;21.23;57.48;99495.98;1758789;80;21158;-73
2022/08/27 02:22:11;;;;;;;19.92;10.38;;;;;;;21.23;57.30;99496.83;1762970;80;21084;-72
2022/08/27 02:24:39;;;;;;;11.70;9.88;;;;;;;21.23;57.30;99494.64;1743065;80;21063;-74
2022/08/27 02:27:05;;;;;;;15.98;9.85;;;;;;;21.21;57.33;99500.31;1756766;80;21108;-74
2022/08/27 02:29:33;;;;;;;12.70;9.83;;;;;;;21.20;57.34;99490.55;1724826;83;21017;-71
2022/08/27 02:32:00;;;;;;;12.93;9.28;;;;;;;21.20;57.57;99489.20;1687657;84;21332;-72
2022/08/27 02:34:28;;;;;;;11.75;9.08;;;;;;;21.17;57.43;99486.98;1754308;80;21072;-74
2022/08/27 02:36:54;;;;;;;10.40;9.30;;;;;;;21.14;57.70;99492.88;1758045;81;21052;-72
2022/08/27 02:39:20;;;;;;;13.22;10.40;;;;;;;21.07;57.86;99493.56;1758973;80;21093;-73
2022/08/27 02:41:47;;;;;;;13.43;10.70;;;;;;;21.05;58.04;99495.69;1755265;80;21520;-73
2022/08/27 02:44:14;;;;;;;12.18;9.75;;;;;;;21.01;58.20;99492.14;1759870;80;21156;-72
2022/08/27 02:46:41;;;;;;;11.83;9.15;;;;;;;20.99;58.38;99484.78;1765384;79;21020;-73
2022/08/27 02:49:08;;;;;;;14.68;9.18;;;;;;;20.96;58.44;99492.03;1765366;80;21524;-72
2022/08/27 02:51:35;;;;;;;11.28;9.63;;;;;;;20.93;58.63;99489.80;1748763;80;21087;-73
2022/08/27 02:54:02;;;;;;;11.60;9.95;;;;;;;20.94;58.78;99492.81;1764090;80;21001;-72
2022/08/27 02:56:28;;;;;;;14.98;9.80;;;;;;;20.96;58.61;99487.17;1781815;79;21106;-73
2022/08/27 02:58:55;;;;;;;13.65;9.48;;;;;;;20.98;58.57;99490.45;1764809;79;21025;-73
2022/08/27 03:01:21;;;;;;;12.58;9.85;;;;;;;20.96;58.39;99485.28;1765427;80;21042;-73
2022/08/27 03:03:48;;;;;;;14.83;9.45;;;;;;;20.97;58.34;99484.20;1762488;80;21077;-71
2022/08/27 03:06:14;;;;;;;14.70;9.90;;;;;;;20.98;58.47;99482.34;1758657;80;21106;-71
2022/08/27 03:08:41;;;;;;;11.83;9.65;;;;;;;20.99;58.61;99483.97;1760063;80;21275;-73
2022/08/27 03:11:07;;;;;;;12.65;9.08;;;;;;;21.01;58.79;99479.14;1764104;81;21097;-72
2022/08/27 03:13:37;;;;;;;11.65;9.03;;;;;;;21.03;58.59;99488.36;1764835;80;21482;-73
2022/08/27 03:16:05;;;;;;;14.00;8.85;;;;;;;21.01;58.66;99481.34;1764893;80;21021;-72
2022/08/27 03:18:33;;;;;;;13.58;9.60;;;;;;;21.00;58.46;99487.78;1763566;80;21050;-72
2022/08/27 03:21:00;;;;;;;11.65;10.13;;;;;;;20.99;58.41;99484.78;1764096;81;21911;-72
2022/08/27 03:23:32;;;;;;;12.68;9.13;;;;;;;21.01;58.46;99482.69;1765010;80;21104;-72
2022/08/27 03:26:00;;;;;;;12.37;9.30;;;;;;;21.05;58.44;99484.34;1710946;81;21131;-73
2022/08/27 03:28:30;;;;;;;13.08;9.40;;;;;;;21.09;58.61;99477.93;1760603;80;21531;-72
2022/08/27 03:31:00;;;;;;;15.50;9.80;;;;;;;21.13;58.90;99475.02;1762803;79;21088;-71
2022/08/27 03:33:29;;;;;;;12.70;9.55;;;;;;;21.11;58.67;99481.20;1728252;81;21091;-73
2022/08/27 03:37:25;;;;;;;12.25;9.45;;;;;;;21.13;59.20;99483.97;1805926;78;22665;-74
2022/08/27 03:39:52;;;;;;;12.95;10.38;;;;;;;21.09;59.14;99482.79;1788101;80;21012;-73
2022/08/27 03:42:19;;;;;;;15.48;10.28;;;;;;;21.10;58.91;99480.39;1788131;80;21239;-73
2022/08/27 03:44:46;;;;;;;14.05;10.03;;;;;;;21.11;58.87;99482.05;1767686;80;21022;-71
2022/08/27 03:47:12;;;;;;;14.38;10.90;;;;;;;21.13;58.74;99478.56;1777784;80;21060;-72
2022/08/27 03:49:38;;;;;;;14.40;10.45;;;;;;;21.16;58.53;99479.95;1772276;79;21024;-73
2022/08/27 03:52:05;;;;;;;14.00;9.90;;;;;;;21.20;58.41;99471.64;1782132;79;21093;-71
2022/08/27 03:54:34;;;;;;;11.28;9.58;;;;;;;21.23;58.25;99473.87;1766184;80;21212;-73
2022/08/27 03:57:01;;;;;;;13.15;10.70;;;;;;;21.26;58.31;99476.06;1783906;80;21069;-71
2022/08/27 03:59:27;;;;;;;16.67;10.75;;;;;;;21.27;58.28;99464.20;1781362;80;20976;-73
2022/08/27 04:01:54;;;;;;;18.52;11.00;;;;;;;21.30;58.09;99469.64;1765540;80;21240;-73
2022/08/27 04:04:22;;;;;;;13.60;10.70;;;;;;;21.31;58.01;99468.05;1781565;79;21259;-72
2022/08/27 04:06:50;;;;;;;13.55;10.10;;;;;;;21.32;58.01;99472.38;1787158;80;21037;-72
2022/08/27 04:09:17;;;;;;;17.98;10.90;;;;;;;21.35;57.95;99468.38;1788046;80;21029;-70
2022/08/27 04:11:45;;;;;;;14.85;10.98;;;;;;;21.37;57.93;99466.25;1787421;80;21057;-72
2022/08/27 04:14:11;;;;;;;12.93;10.63;;;;;;;21.38;57.92;99467.87;1758049;80;21022;-71
2022/08/27 04:16:40;;;;;;;14.58;11.28;;;;;;;21.39;57.99;99464.12;1787662;80;21056;-73
2022/08/27 04:19:06;;;;;;;14.53;10.53;;;;;;;21.43;58.04;99466.62;1764813;80;21822;-73
2022/08/27 04:21:34;;;;;;;14.85;10.00;;;;;;;21.46;57.90;99461.27;1767452;78;21050;-73
2022/08/27 04:24:01;;;;;;;20.30;11.03;;;;;;;21.48;57.62;99464.03;1718549;83;21065;-72
2022/08/27 04:26:28;;;;;;;12.40;10.60;;;;;;;21.52;57.41;99463.02;1712230;81;21604;-75
2022/08/27 04:28:56;;;;;;;18.35;11.30;;;;;;;21.55;57.48;99463.85;1714670;81;21580;-75
2022/08/27 04:31:24;;;;;;;13.50;10.60;;;;;;;21.59;57.41;99455.53;1714700;82;21123;-73
2022/08/27 04:33:52;;;;;;;16.32;10.65;;;;;;;21.61;57.41;99456.10;1738703;81;21285;-71
2022/08/27 04:36:19;;;;;;;15.80;10.28;;;;;;;21.64;57.49;99456.97;1707545;81;21074;-74
2022/08/27 04:38:45;;;;;;;13.15;10.40;;;;;;;21.66;57.41;99454.84;1698511;84;21110;-72
2022/08/27 04:41:26;;;;;;;15.38;10.55;;;;;;;21.68;57.27;99448.64;1693397;83;21503;-74
2022/08/27 04:43:55;;;;;;;12.70;10.18;;;;;;;21.73;57.32;99447.38;1695966;82;21167;-69
2022/08/27 04:46:24;;;;;;;14.85;10.48;;;;;;;21.79;57.23;99443.67;1701792;82;21050;-71
2022/08/27 04:48:51;;;;;;;15.23;10.75;;;;;;;21.87;57.10;99447.84;1705729;82;21064;-71
2022/08/27 04:51:19;;;;;;;13.22;9.68;;;;;;;21.92;57.05;99443.02;1698925;82;21015;-73
2022/08/27 04:53:46;;;;;;;12.80;10.50;;;;;;;21.98;56.88;99440.15;1704924;82;21096;-73
2022/08/27 04:56:17;;;;;;;14.53;10.08;;;;;;;22.05;57.02;99443.20;1691666;83;22525;-74
2022/08/27 04:58:43;;;;;;;16.50;10.70;;;;;;;22.10;56.94;99444.63;1691982;83;21012;-73
2022/08/27 05:01:17;;;;;;;28.90;10.80;;;;;;;22.16;56.78;99449.03;1694951;83;21054;-72
2022/08/27 05:03:44;;;;;;;13.70;9.15;;;;;;;22.21;56.49;99448.26;1688336;83;21083;-74
2022/08/27 05:06:11;;;;;;;12.63;9.00;;;;;;;22.26;56.42;99445.66;1695115;83;21633;-75
2022/08/27 05:08:38;;;;;;;16.60;10.72;;;;;;;22.31;56.48;99446.54;1705343;82;22101;-73
2022/08/27 05:11:12;;;;;;;13.32;9.25;;;;;;;22.36;56.45;99447.13;1695671;82;21048;-72
2022/08/27 05:13:39;;;;;;;13.28;9.58;;;;;;;22.42;56.20;99446.10;1701656;83;21071;-71
2022/08/27 05:16:09;;;;;;;14.98;9.38;;;;;;;22.46;55.98;99447.23;1688340;83;21042;-71
2022/08/27 05:18:35;;;;;;;12.18;9.30;;;;;;;22.50;55.64;99444.84;1695090;83;21093;-73
2022/08/27 05:21:02;;;;;;;16.67;9.63;;;;;;;22.54;55.56;99438.68;1696764;83;21480;-73
2022/08/27 05:23:29;;;;;;;11.90;9.40;;;;;;;22.60;55.39;99463.08;1699286;83;21113;-74
2022/08/27 05:25:56;;;;;;;15.20;9.35;;;;;;;22.63;55.19;99455.27;1691758;83;21089;-73
2022/08/27 05:28:23;;;;;;;13.72;9.30;;;;;;;22.67;55.18;99447.46;1688796;83;21579;-73
2022/08/27 05:30:52;;;;;;;9.88;8.53;;;;;;;22.73;54.97;99449.14;1693214;83;21016;-73
2022/08/27 05:33:21;;;;;;;11.90;8.78;;;;;;;22.76;55.04;99456.22;1695151;83;21228;-76
2022/08/27 05:35:51;;;;;;;11.30;9.30;;;;;;;22.83;54.85;99460.09;1693861;82;21161;-74
2022/08/27 05:38:17;;;;;;;10.35;8.70;;;;;;;22.90;54.64;99458.52;1696509;83;21018;-73
2022/08/27 05:40:44;;;;;;;9.73;8.70;;;;;;;22.95;54.49;99455.33;1695268;82;21027;-76
2022/08/27 05:43:14;;;;;;;12.85;9.15;;;;;;;23.01;54.46;99448.07;1691549;83;21030;-74
2022/08/27 05:45:43;;;;;;;14.30;9.38;;;;;;;23.07;54.39;99450.32;1688711;83;21119;-73
2022/08/27 05:48:12;;;;;;;12.55;9.38;;;;;;;23.10;54.42;99452.50;1701229;82;21107;-71
2022/08/27 05:50:39;;;;;;;15.90;9.78;;;;;;;23.13;54.30;99454.70;1692450;82;21050;-73
2022/08/27 05:53:06;;;;;;;11.60;9.18;;;;;;;23.16;54.21;99450.14;1694598;83;21035;-71
2022/08/27 05:55:39;;;;;;;16.77;8.90;;;;;;;23.21;54.25;99448.80;1704410;82;21093;-73
2022/08/27 05:58:06;;;;;;;11.45;9.43;;;;;;;23.26;54.15;99448.05;1688174;83;21111;-72
2022/08/27 06:03:23;;;;;;;14.03;8.95;;;;;;;23.35;53.97;99442.41;1688687;83;21057;-76
2022/08/27 06:05:49;;;;;;;15.10;8.58;;;;;;;;;;1698679;83;21021;-81
2022/08/27 06:08:16;;;;;;;13.43;9.45;;;;;;;23.35;53.85;99441.89;1701161;82;21106;-79
2022/08/27 06:10:43;;;;;;;14.78;9.85;;;;;;;23.36;53.85;99449.47;1709903;82;21282;-79
2022/08/27 06:13:10;;;;;;;14.30;8.63;;;;;;;23.32;53.92;99446.45;1705399;83;21012;-78
2022/08/27 06:15:36;;;;;;;15.20;9.98;;;;;;;23.31;54.04;99445.36;1699999;83;21035;-80
2022/08/27 06:18:04;;;;;;;11.75;9.38;;;;;;;23.28;54.12;99437.77;1695905;83;20995;-78
2022/08/27 06:20:30;;;;;;;12.53;9.18;;;;;;;23.26;54.20;99445.34;1700089;83;21713;-78
2022/08/27 06:22:57;;;;;;;12.28;9.05;;;;;;;23.24;54.13;99444.78;1680946;83;21251;-78
2022/08/27 06:25:23;;;;;;;12.75;8.85;;;;;;;23.24;54.01;99444.78;1700543;82;21535;-77
2022/08/27 06:27:50;;;;;;;16.75;9.10;;;;;;;23.23;53.95;99443.13;1640948;86;21062;-78
2022/08/27 06:30:16;;;;;;;11.45;8.80;;;;;;;23.22;54.04;99442.33;1696024;84;21539;-78
2022/08/27 06:32:44;;;;;;;13.18;9.60;;;;;;;23.20;53.96;99447.70;1687474;84;21027;-78
2022/08/27 06:35:12;;;;;;;12.13;8.90;;;;;;;23.19;54.12;99444.73;1692260;84;21162;-85
2022/08/27 06:37:38;;;;;;;13.95;8.58;;;;;;;23.19;54.09;99444.73;1690015;83;21030;-81
2022/08/27 06:40:08;;;;;;;11.00;8.45;;;;;;;23.20;53.96;99440.92;1658224;86;21047;-84
2022/08/27 06:42:36;;;;;;;12.95;8.33;;;;;;;23.20;53.75;99455.31;1690839;84;21102;-84
2022/08/27 06:45:04;;;;;;;13.60;8.13;;;;;;;23.15;53.80;99444.42;1660878;85;21122;-85
2022/08/27 06:47:31;;;;;;;10.60;7.92;;;;;;;23.10;53.86;99442.50;1680331;84;21152;-83
2022/08/27 06:49:58;;;;;;;11.33;8.18;;;;;;;23.11;53.98;99432.47;1672070;84;21101;-81
2022/08/27 06:52:25;;;;;;;10.98;8.78;;;;;;;23.12;53.88;99432.73;1687420;83;21054;-84
2022/08/27 06:54:52;;;;;;;10.15;8.30;;;;;;;23.12;54.04;99439.00;1690638;84;21629;-81
2022/08/27 06:57:20;;;;;;;11.03;8.38;;;;;;;23.11;54.19;99431.12;1685664;85;21637;-81
2022/08/27 06:59:47;;;;;;;16.27;8.83;;;;;;;23.14;54.10;99431.94;1680555;84;21148;-82
2022/08/27 07:02:14;;;;;;;12.68;8.85;;;;;;;23.12;54.12;99429.52;1673733;84;20993;-80
2022/08/27 07:04:40;;;;;;;17.30;9.10;;;;;;;23.11;54.18;99431.12;1688755;83;21031;-83
2022/08/27 07:07:06;;;;;;;14.80;10.23;;;;;;;23.09;54.27;99429.20;1664110;85;21320;-81
2022/08/27 07:09:33;;;;;;;13.93;8.50;;;;;;;23.12;54.37;99436.80;1646192;84;21057;-83
2022/08/27 07:12:00;;;;;;;14.38;8.33;;;;;;;23.15;54.36;99438.45;1691446;83;21261;-83
2022/08/27 07:14:26;;;;;;;12.25;7.67;;;;;;;23.19;54.41;99440.66;1698586;83;21070;-80
2022/08/27 07:16:54;;;;;;;12.23;8.48;;;;;;;23.24;54.44;99435.30;1703759;83;21101;-79
2022/08/27 07:19:20;;;;;;;16.15;8.35;;;;;;;23.31;54.48;99437.23;1687436;85;21297;-83
2022/08/27 07:21:47;;;;;;;17.57;11.85;;;;;;;;;;1686913;85;21112;-83
2022/08/27 07:24:13;;;;;;;11.53;7.90;;;;;;;23.46;54.45;99431.11;1696219;83;21183;-83
2022/08/27 07:26:42;;;;;;;14.65;8.53;;;;;;;23.54;54.25;99428.71;1686352;85;21071;-83
2022/08/27 07:29:11;;;;;;;12.00;8.50;;;;;;;23.62;53.93;99424.70;1701285;83;21027;-83
2022/08/27 07:31:38;;;;;;;14.13;8.43;;;;;;;23.71;53.91;99419.06;1687047;85;21668;-83
2022/08/27 07:34:05;;;;;;;13.03;8.48;;;;;;;23.78;53.74;99416.65;1672094;84;21057;-83
2022/08/27 07:36:33;;;;;;;16.80;9.85;;;;;;;23.83;53.63;99415.36;1692420;83;21160;-81
2022/08/27 07:38:59;;;;;;;16.05;9.10;;;;;;;23.85;53.61;99414.01;1657529;86;21004;-82
2022/08/27 07:41:26;;;;;;;15.08;8.40;;;;;;;23.88;53.43;99413.49;1656690;86;21007;-83
2022/08/27 07:46:37;;;;;;;14.60;8.68;;;;;;;23.94;53.40;99404.84;1639167;86;21032;-83
2022/08/27 07:49:04;;;;;;;17.12;9.60;;;;;;;23.99;53.39;99400.80;1638452;87;21135;-83
2022/08/27 07:51:31;;;;;;;12.00;8.48;;;;;;;24.06;53.38;99400.00;1640088;86;22043;-82
2022/08/27 07:53:58;;;;;;;18.20;9.05;;;;;;;24.16;53.22;99404.64;1643972;86;21020;-82
2022/08/27 07:56:24;;;;;;;15.20;8.68;;;;;;;24.27;53.04;99408.22;1629887;86;21112;-80
2022/08/27 07:58:52;;;;;;;13.10;8.48;;;;;;;24.38;52.91;99407.17;1657536;85;21114;-83
2022/08/27 08:01:18;;;;;;;12.45;7.85;;;;;;;24.51;52.70;99405.86;1668637;85;21273;-81
2022/08/27 08:03:45;;;;;;;18.10;8.35;;;;;;;24.63;52.34;99405.64;1658255;85;21066;-86
2022/08/27 08:06:14;;;;;;;13.35;7.95;;;;;;;24.75;51.97;99407.55;1673305;85;21094;-85
2022/08/27 08:08:40;;;;;;;17.48;8.20;;;;;;;24.88;51.80;99410.28;1655909;85;21025;-82
2022/08/27 08:11:10;;;;;;;10.75;7.97;;;;;;;25.01;51.65;99410.27;1644668;86;21105;-83
2022/08/27 08:13:37;;;;;;;10.72;7.55;;;;;;;25.17;51.46;99409.20;1656504;85;21069;-85
2022/08/27 08:16:05;;;;;;;11.60;7.92;;;;;;;25.34;51.36;99410.83;1641771;86;21103;-85
2022/08/27 08:18:32;;;;;;;12.60;7.85;;;;;;;25.53;51.13;99415.16;1643177;86;21061;-86
2022/08/27 08:21:06;;;;;;;19.37;8.73;;;;;;;25.69;50.38;99409.94;1649165;86;21083;-83
2022/08/27 08:23:33;;;;;;;12.88;7.00;;;;;;;25.82;50.35;99403.92;1651835;86;21037;-83
2022/08/27 08:26:00;;;;;;;9.55;7.17;;;;;;;25.96;50.16;99406.92;1648326;86;21201;-82
2022/08/27 08:28:27;;;;;;;11.43;6.90;;;;;;;26.07;50.00;99410.39;1643694;86;21039;-83
2022/08/27 08:30:54;;;;;;;12.75;6.95;;;;;;;26.18;49.68;99403.02;1637877;87;21499;-82
2022/08/27 08:33:21;;;;;;;11.28;6.90;;;;;;;26.28;49.28;99400.23;1654819;86;21058;-83
2022/08/27 08:35:47;;;;;;;15.50;6.72;;;;;;;26.34;49.11;99401.83;1649828;86;21039;-86
2022/08/27 08:38:16;;;;;;;12.37;6.25;;;;;;;26.41;48.75;99390.09;1672412;83;21226;-82
2022/08/27 08:40:49;;;;;;;11.30;6.37;;;;;;;26.51;48.55;99391.13;1688564;84;21065;-86
2022/08/27 08:43:35;;;;;;;10.53;6.92;;;;;;;26.60;48.09;99386.74;1692789;84;21081;-84
2022/08/27 08:46:21;;;;;;;12.30;6.87;;;;;;;26.68;47.92;99390.22;1706835;79;21007;-84
2022/08/27 08:48:50;;;;;;;11.80;6.37;;;;;;;26.74;47.66;99386.91;1678037;82;20947;-84
2022/08/27 08:51:28;;;;;;;11.38;6.70;;;;;;;26.79;47.55;99387.69;1678566;84;21064;-84
2022/08/27 08:54:09;;;;;;;16.80;7.08;;;;;;;26.83;47.19;99386.55;1688085;85;21541;-84
2022/08/27 08:57:04;;;;;;;8.55;5.95;;;;;;;26.85;47.12;99385.74;1660189;85;21018;-85
2022/08/27 08:59:39;;;;;;;11.12;7.25;;;;;;;26.85;47.01;99390.64;1682752;84;21606;-84
2022/08/27 09:02:09;;;;;;;12.37;7.15;;;;;;;26.86;47.15;99384.63;1680005;85;21097;-84
2022/08/27 09:04:36;;;;;;;11.38;6.53;;;;;;;26.93;47.08;99381.59;1678437;84;21255;-84
2022/08/27 09:07:21;;;;;;;10.82;6.47;;;;;;;26.98;47.10;99380.17;1684943;84;21019;-83
2022/08/27 09:10:11;;;;;;;11.90;7.05;;;;;;;27.04;47.08;99377.66;1688096;85;21038;-83
2022/08/27 09:12:37;;;;;;;8.53;6.62;;;;;;;27.10;46.95;99379.79;1686396;84;21006;-82
2022/08/27 09:15:17;;;;;;;8.08;6.28;;;;;;;27.16;46.73;99380.84;1698752;83;21034;-83
2022/08/27 09:17:46;;;;;;;10.28;6.03;;;;;;;27.23;46.61;99375.84;1709328;83;21457;-82
2022/08/27 09:20:16;;;;;;;14.20;8.63;;;;;;;27.43;46.43;99378.16;1696725;83;21063;-82
2022/08/27 09:22:51;;;;;;;10.30;6.25;;;;;;;27.73;46.33;99378.91;1692594;83;21110;-82
2022/08/27 09:25:30;;;;;;;11.63;5.95;;;;;;;28.21;45.77;99379.69;1688255;83;20976;-82
2022/08/27 09:28:01;;;;;;;10.90;6.00;;;;;;;28.83;44.96;99378.25;1696672;83;21529;-83
2022/08/27 09:30:34;;;;;;;12.23;6.22;;;;;;;29.53;43.78;99383.34;1686692;83;21554;-85
2022/08/27 09:33:05;;;;;;;9.40;6.12;;;;;;;30.27;42.74;99382.44;1699686;83;21039;-86
2022/08/27 09:35:44;;;;;;;10.13;6.73;;;;;;;31.08;41.67;99377.55;1689339;83;21074;-88
2022/08/27 09:38:26;;;;;;;10.58;6.17;;;;;;;31.79;40.38;99376.75;1700260;83;21867;-86
2022/08/27 09:40:53;;;;;;;10.38;6.67;;;;;;;32.31;39.17;99375.50;1682654;83;21029;-83
2022/08/27 09:43:27;;;;;;;8.30;5.90;;;;;;;32.70;38.63;99375.70;1687438;81;21261;-88
2022/08/27 09:45:56;;;;;;;10.75;7.15;;;;;;;33.07;38.21;99372.82;1698278;81;21066;-83
2022/08/27 09:48:29;;;;;;;8.63;5.87;;;;;;;33.70;37.57;99366.80;1695929;83;21051;-84
2022/08/27 09:51:03;;;;;;;11.68;6.53;;;;;;;34.39;36.64;99364.78;1658193;86;21185;-84
2022/08/27 09:53:37;;;;;;;12.28;6.78;;;;;;;35.17;35.76;99359.13;1706687;82;20970;-84
2022/08/27 09:56:06;;;;;;;12.80;5.70;;;;;;;35.90;34.02;99356.98;1714355;81;21747;-85
2022/08/27 09:58:52;;;;;;;9.85;6.55;;;;;;;36.51;33.36;99357.45;1686211;83;21001;-87
2022/08/27 10:01:25;;;;;;;15.30;6.85;;;;;;;37.15;32.44;99355.67;1707153;83;21079;-86
2022/08/27 10:04:14;;;;;;;12.70;6.00;;;;;;;37.83;31.42;99351.00;1703245;83;21036;-81
2022/08/27 10:06:50;;;;;;;15.60;6.37;;;;;;;38.34;30.70;99350.14;1687806;83;21057;-82
2022/08/27 10:09:36;;;;;;;15.80;6.40;;;;;;;38.86;30.28;99348.81;1695172;82;21638;-80
2022/08/27 10:12:23;;;;;;;14.70;6.62;;;;;;;39.29;29.59;99344.05;1699720;83;21015;-82
2022/08/27 10:14:54;;;;;;;17.75;8.23;;;;;;;39.69;28.84;99351.64;1700750;82;21075;-81
2022/08/27 10:17:56;;;;;;;19.57;7.92;;;;;;;39.99;28.40;99346.75;1712175;82;21628;-81
2022/08/27 10:21:00;;;;;;;16.73;6.65;;;;;;;40.23;28.38;99345.47;1693872;83;21066;-83
2022/08/27 10:23:40;;;;;;;18.27;7.20;;;;;;;40.58;27.86;99347.10;1714515;82;21075;-86
2022/08/27 10:26:15;;;;;;;20.00;6.95;;;;;;;40.89;27.29;99343.08;1699013;83;21039;-86
2022/08/27 10:29:11;;;;;;;19.67;8.08;;;;;;;41.30;26.97;99347.28;1703044;82;21514;-83
2022/08/27 10:32:04;;;;;;;14.28;6.47;;;;;;;41.54;26.72;99352.83;1704432;83;21023;-87
2022/08/27 10:34:55;;;;;;;18.37;6.60;;;;;;;41.72;24.82;99352.97;1706582;82;21058;-86
2022/08/27 10:37:58;;;;;;;;;;;;;;;41.72;24.82;99352.97;1648664;85;21110;-87
2022/08/27 10:40:51;;;;;;;18.75;7.08;;;;;;;41.74;24.38;99351.98;1639156;87;20470;-86
2022/08/27 10:43:52;;;;;;;18.57;7.95;;;;;;;41.76;24.30;99354.39;1653160;86;21129;-88
2022/08/27 10:46:40;;;;;;;16.45;7.62;;;;;;;41.84;24.37;99351.84;1644961;86;21555;-86
2022/08/27 10:49:40;;;;;;;15.30;6.35;;;;;;;42.16;24.25;99356.84;1639042;86;21121;-86
2022/08/27 10:52:40;;;;;;;24.25;8.33;;;;;;;42.42;23.83;99351.55;1603133;86;21145;-85
2022/08/27 10:55:22;;;;;;;15.03;7.17;;;;;;;42.56;24.15;99355.05;1640570;86;21067;-86
2022/08/27 10:58:16;;;;;;;17.63;6.50;;;;;;;42.53;23.94;99354.42;1647928;86;21082;-83
2022/08/27 11:00:59;;;;;;;18.77;7.03;;;;;;;42.35;24.04;99369.08;1640795;86;21063;-86
2022/08/27 11:03:46;;;;;;;21.82;7.42;;;;;;;42.00;24.33;99359.93;1644041;86;20992;-84
2022/08/27 11:06:24;;;;;;;18.00;7.05;;;;;;;42.00;24.33;99359.93;1667744;82;21140;-85
2022/08/27 11:08:56;;;;;;;17.45;8.13;;;;;;;41.61;24.70;99360.43;1640776;84;21035;-83
2022/08/27 11:11:31;;;;;;;16.80;8.60;;;;;;;41.24;25.00;99358.55;1663889;86;21056;-85
2022/08/27 11:13:58;;;;;;;14.00;7.17;;;;;;;40.92;25.32;99359.03;1643288;86;21051;-84
2022/08/27 11:16:44;;;;;;;16.93;6.30;;;;;;;40.63;25.58;99354.52;1668419;85;20983;-82
2022/08/27 11:19:19;;;;;;;18.20;7.28;;;;;;;40.38;25.74;99359.80;1681692;85;21572;-84
2022/08/27 11:22:02;;;;;;;13.83;6.42;;;;;;;39.88;25.90;99359.90;1633377;85;21102;-84
2022/08/27 11:24:46;;;;;;;14.87;5.90;;;;;;;39.36;26.29;99368.36;1674060;85;21086;-85
2022/08/27 11:27:12;;;;;;;17.07;7.08;;;;;;;38.75;26.84;99360.33;1654540;86;21105;-83
2022/08/27 11:30:07;;;;;;;17.73;6.90;;;;;;;38.16;27.42;99361.66;1637894;86;21516;-85
2022/08/27 11:32:52;;;;;;;15.88;7.35;;;;;;;37.74;27.90;99363.66;1646875;86;21163;-84
2022/08/27 11:35:40;;;;;;;18.07;7.67;;;;;;;37.35;28.51;99357.95;1646298;86;21054;-85
2022/08/27 11:38:29;;;;;;;17.62;6.75;;;;;;;36.96;29.13;99352.77;1632987;85;21041;-85
2022/08/27 11:41:19;;;;;;;17.10;7.85;;;;;;;36.57;29.52;99351.09;1659269;85;21098;-83
2022/08/27 11:43:47;;;;;;;15.90;6.80;;;;;;;36.30;29.62;99348.54;1633009;86;20987;-82
2022/08/27 11:46:23;;;;;;;21.50;7.12;;;;;;;36.23;30.06;99345.55;1655728;86;21307;-85
2022/08/27 11:49:03;;;;;;;14.55;6.25;;;;;;;36.18;29.95;99340.50;1648545;86;21083;-83
2022/08/27 11:51:33;;;;;;;20.37;7.08;;;;;;;36.11;30.12;99344.98;1661854;85;21037;-84
2022/08/27 11:54:07;;;;;;;13.60;6.37;;;;;;;36.06;29.76;99336.92;1643389;86;21072;-85
2022/08/27 11:56:40;;;;;;;19.25;6.58;;;;;;;36.07;29.74;99337.16;1650395;86;20999;-85